sensor_id;sensor_type;location;lat;lon;timestamp;P1;durP1;ratioP1;P2;durP2;ratioP2
15818;SDS011;8010;53.986;12.106;2024-03-08T00:02:24;8.20;;;3.97;;
15818;SDS011;8010;53.986;12.106;2024-03-08T00:04:49;8.80;;;4.20;;
15818;SDS011;8010;53.986;12.106;2024-03-08T00:07:15;9.37;;;4.23;;
15818;SDS011;8010;53.986;12.106;2024-03-08T00:09:40;7.13;;;3.93;;
15818;SDS011;8010;53.986;12.106;2024-03-08T00:12:06;5.70;;;3.63;;
15818;SDS011;8010;53.986;12.106;2024-03-08T00:14:31;10.77;;;4.50;;
15818;SDS011;8010;53.986;12.106;2024-03-08T00:16:58;9.90;;;4.47;;
15818;SDS011;8010;53.986;12.106;2024-03-08T00:19:23;7.30;;;4.30;;
15818;SDS011;8010;53.986;12.106;2024-03-08T00:21:49;8.43;;;4.27;;
15818;SDS011;8010;53.986;12.106;2024-03-08T00:24:15;6.67;;;3.97;;
15818;SDS011;8010;53.986;12.106;2024-03-08T00:26:40;8.50;;;4.40;;
15818;SDS011;8010;53.986;12.106;2024-03-08T00:29:07;7.30;;;4.33;;
15818;SDS011;8010;53.986;12.106;2024-03-08T00:31:32;9.60;;;4.50;;
15818;SDS011;8010;53.986;12.106;2024-03-08T00:33:58;7.37;;;4.30;;
15818;SDS011;8010;53.986;12.106;2024-03-08T00:36:23;6.23;;;3.70;;
15818;SDS011;8010;53.986;12.106;2024-03-08T00:38:49;11.63;;;4.17;;
15818;SDS011;8010;53.986;12.106;2024-03-08T00:41:15;7.60;;;4.40;;
15818;SDS011;8010;53.986;12.106;2024-03-08T00:43:40;7.87;;;4.47;;
15818;SDS011;8010;53.986;12.106;2024-03-08T00:46:06;7.40;;;4.80;;
15818;SDS011;8010;53.986;12.106;2024-03-08T00:48:32;8.03;;;4.30;;
15818;SDS011;8010;53.986;12.106;2024-03-08T00:50:58;8.47;;;3.97;;
15818;SDS011;8010;53.986;12.106;2024-03-08T00:53:23;6.87;;;3.80;;
15818;SDS011;8010;53.986;12.106;2024-03-08T00:55:49;6.23;;;4.13;;
15818;SDS011;8010;53.986;12.106;2024-03-08T00:58:15;7.77;;;3.87;;
15818;SDS011;8010;53.986;12.106;2024-03-08T01:00:40;7.53;;;4.00;;
15818;SDS011;8010;53.986;12.106;2024-03-08T01:03:06;6.97;;;4.00;;
15818;SDS011;8010;53.986;12.106;2024-03-08T01:05:31;8.43;;;4.03;;
15818;SDS011;8010;53.986;12.106;2024-03-08T01:07:57;8.43;;;4.50;;
15818;SDS011;8010;53.986;12.106;2024-03-08T01:10:23;9.80;;;4.53;;
15818;SDS011;8010;53.986;12.106;2024-03-08T01:12:48;6.03;;;3.77;;
15818;SDS011;8010;53.986;12.106;2024-03-08T01:15:14;6.13;;;4.23;;
15818;SDS011;8010;53.986;12.106;2024-03-08T01:17:40;7.57;;;4.23;;
15818;SDS011;8010;53.986;12.106;2024-03-08T01:20:06;8.27;;;4.90;;
15818;SDS011;8010;53.986;12.106;2024-03-08T01:22:34;8.17;;;4.40;;
15818;SDS011;8010;53.986;12.106;2024-03-08T01:24:59;5.67;;;3.67;;
15818;SDS011;8010;53.986;12.106;2024-03-08T01:27:25;9.70;;;4.27;;
15818;SDS011;8010;53.986;12.106;2024-03-08T01:29:51;6.70;;;3.83;;
15818;SDS011;8010;53.986;12.106;2024-03-08T01:32:16;7.43;;;3.90;;
15818;SDS011;8010;53.986;12.106;2024-03-08T01:34:42;6.50;;;4.13;;
15818;SDS011;8010;53.986;12.106;2024-03-08T01:37:09;6.70;;;3.93;;
15818;SDS011;8010;53.986;12.106;2024-03-08T01:39:35;8.07;;;4.27;;
15818;SDS011;8010;53.986;12.106;2024-03-08T01:42:00;9.37;;;4.67;;
15818;SDS011;8010;53.986;12.106;2024-03-08T01:44:26;9.17;;;4.63;;
15818;SDS011;8010;53.986;12.106;2024-03-08T01:46:51;9.50;;;4.63;;
15818;SDS011;8010;53.986;12.106;2024-03-08T01:49:18;6.23;;;3.80;;
15818;SDS011;8010;53.986;12.106;2024-03-08T01:51:46;7.20;;;3.90;;
15818;SDS011;8010;53.986;12.106;2024-03-08T01:54:13;6.23;;;3.93;;
15818;SDS011;8010;53.986;12.106;2024-03-08T01:56:40;9.10;;;4.13;;
15818;SDS011;8010;53.986;12.106;2024-03-08T01:59:05;8.23;;;4.47;;
15818;SDS011;8010;53.986;12.106;2024-03-08T02:01:32;10.63;;;4.00;;
15818;SDS011;8010;53.986;12.106;2024-03-08T02:03:59;7.90;;;4.13;;
15818;SDS011;8010;53.986;12.106;2024-03-08T02:06:24;8.97;;;4.03;;
15818;SDS011;8010;53.986;12.106;2024-03-08T02:08:50;9.10;;;4.53;;
15818;SDS011;8010;53.986;12.106;2024-03-08T02:11:16;7.60;;;3.90;;
15818;SDS011;8010;53.986;12.106;2024-03-08T02:13:43;11.03;;;4.97;;
15818;SDS011;8010;53.986;12.106;2024-03-08T02:16:09;8.87;;;4.67;;
15818;SDS011;8010;53.986;12.106;2024-03-08T02:18:34;10.70;;;5.07;;
15818;SDS011;8010;53.986;12.106;2024-03-08T02:21:01;6.13;;;4.03;;
15818;SDS011;8010;53.986;12.106;2024-03-08T02:23:30;6.97;;;4.50;;
15818;SDS011;8010;53.986;12.106;2024-03-08T02:25:56;10.03;;;4.67;;
15818;SDS011;8010;53.986;12.106;2024-03-08T02:28:22;10.27;;;5.83;;
15818;SDS011;8010;53.986;12.106;2024-03-08T02:30:50;15.17;;;6.17;;
15818;SDS011;8010;53.986;12.106;2024-03-08T02:33:17;8.50;;;4.87;;
15818;SDS011;8010;53.986;12.106;2024-03-08T02:35:46;8.80;;;5.20;;
15818;SDS011;8010;53.986;12.106;2024-03-08T02:38:16;14.37;;;5.23;;
15818;SDS011;8010;53.986;12.106;2024-03-08T02:40:43;10.73;;;5.03;;
15818;SDS011;8010;53.986;12.106;2024-03-08T02:43:10;8.23;;;4.83;;
15818;SDS011;8010;53.986;12.106;2024-03-08T02:45:37;10.07;;;5.17;;
15818;SDS011;8010;53.986;12.106;2024-03-08T02:48:02;8.47;;;5.10;;
15818;SDS011;8010;53.986;12.106;2024-03-08T02:50:28;12.63;;;4.87;;
15818;SDS011;8010;53.986;12.106;2024-03-08T02:52:54;10.73;;;4.93;;
15818;SDS011;8010;53.986;12.106;2024-03-08T02:55:19;17.97;;;5.27;;
15818;SDS011;8010;53.986;12.106;2024-03-08T02:57:45;8.10;;;4.80;;
15818;SDS011;8010;53.986;12.106;2024-03-08T03:00:14;13.80;;;5.67;;
15818;SDS011;8010;53.986;12.106;2024-03-08T03:02:40;21.20;;;6.03;;
15818;SDS011;8010;53.986;12.106;2024-03-08T03:05:07;13.40;;;5.37;;
15818;SDS011;8010;53.986;12.106;2024-03-08T03:07:34;10.30;;;5.83;;
15818;SDS011;8010;53.986;12.106;2024-03-08T03:10:00;17.43;;;6.83;;
15818;SDS011;8010;53.986;12.106;2024-03-08T03:12:29;18.10;;;6.70;;
15818;SDS011;8010;53.986;12.106;2024-03-08T03:14:56;19.73;;;7.03;;
15818;SDS011;8010;53.986;12.106;2024-03-08T03:17:23;12.13;;;6.43;;
15818;SDS011;8010;53.986;12.106;2024-03-08T03:19:49;11.40;;;6.17;;
15818;SDS011;8010;53.986;12.106;2024-03-08T03:22:15;11.73;;;6.50;;
15818;SDS011;8010;53.986;12.106;2024-03-08T03:24:41;11.47;;;6.70;;
15818;SDS011;8010;53.986;12.106;2024-03-08T03:27:07;11.27;;;5.80;;
15818;SDS011;8010;53.986;12.106;2024-03-08T03:29:36;20.77;;;7.43;;
15818;SDS011;8010;53.986;12.106;2024-03-08T03:32:03;13.63;;;6.47;;
15818;SDS011;8010;53.986;12.106;2024-03-08T03:34:29;15.57;;;6.83;;
15818;SDS011;8010;53.986;12.106;2024-03-08T03:36:54;16.40;;;7.03;;
15818;SDS011;8010;53.986;12.106;2024-03-08T03:39:20;14.80;;;7.60;;
15818;SDS011;8010;53.986;12.106;2024-03-08T03:41:47;12.57;;;7.20;;
15818;SDS011;8010;53.986;12.106;2024-03-08T03:44:16;14.47;;;7.20;;
15818;SDS011;8010;53.986;12.106;2024-03-08T03:46:43;17.67;;;7.40;;
15818;SDS011;8010;53.986;12.106;2024-03-08T03:49:11;18.23;;;6.50;;
15818;SDS011;8010;53.986;12.106;2024-03-08T03:51:37;14.83;;;6.17;;
15818;SDS011;8010;53.986;12.106;2024-03-08T03:54:03;16.53;;;7.27;;
15818;SDS011;8010;53.986;12.106;2024-03-08T03:56:29;17.53;;;7.83;;
15818;SDS011;8010;53.986;12.106;2024-03-08T03:58:55;16.00;;;8.07;;
15818;SDS011;8010;53.986;12.106;2024-03-08T04:01:21;17.07;;;8.07;;
15818;SDS011;8010;53.986;12.106;2024-03-08T04:03:47;15.07;;;7.57;;
15818;SDS011;8010;53.986;12.106;2024-03-08T04:06:12;21.90;;;7.03;;
15818;SDS011;8010;53.986;12.106;2024-03-08T04:08:39;16.40;;;8.17;;
15818;SDS011;8010;53.986;12.106;2024-03-08T04:11:05;14.70;;;7.37;;
15818;SDS011;8010;53.986;12.106;2024-03-08T04:13:30;19.00;;;7.60;;
15818;SDS011;8010;53.986;12.106;2024-03-08T04:15:56;16.43;;;7.50;;
15818;SDS011;8010;53.986;12.106;2024-03-08T04:18:21;21.97;;;9.23;;
15818;SDS011;8010;53.986;12.106;2024-03-08T04:20:47;18.53;;;8.37;;
15818;SDS011;8010;53.986;12.106;2024-03-08T04:23:12;19.37;;;7.73;;
15818;SDS011;8010;53.986;12.106;2024-03-08T04:25:38;22.60;;;8.97;;
15818;SDS011;8010;53.986;12.106;2024-03-08T04:28:03;22.60;;;9.03;;
15818;SDS011;8010;53.986;12.106;2024-03-08T04:30:29;16.70;;;8.33;;
15818;SDS011;8010;53.986;12.106;2024-03-08T04:32:55;21.80;;;9.47;;
15818;SDS011;8010;53.986;12.106;2024-03-08T04:35:20;16.63;;;8.30;;
15818;SDS011;8010;53.986;12.106;2024-03-08T04:37:46;17.90;;;8.20;;
15818;SDS011;8010;53.986;12.106;2024-03-08T04:40:11;19.57;;;8.93;;
15818;SDS011;8010;53.986;12.106;2024-03-08T04:42:37;20.73;;;8.23;;
15818;SDS011;8010;53.986;12.106;2024-03-08T04:45:05;17.30;;;8.00;;
15818;SDS011;8010;53.986;12.106;2024-03-08T04:47:32;16.17;;;8.20;;
15818;SDS011;8010;53.986;12.106;2024-03-08T04:49:58;16.83;;;8.47;;
15818;SDS011;8010;53.986;12.106;2024-03-08T04:52:24;23.87;;;9.03;;
15818;SDS011;8010;53.986;12.106;2024-03-08T04:54:50;16.97;;;8.47;;
15818;SDS011;8010;53.986;12.106;2024-03-08T04:57:16;21.57;;;8.23;;
15818;SDS011;8010;53.986;12.106;2024-03-08T04:59:43;18.27;;;8.77;;
15818;SDS011;8010;53.986;12.106;2024-03-08T05:02:08;17.40;;;8.00;;
15818;SDS011;8010;53.986;12.106;2024-03-08T05:04:34;15.10;;;7.27;;
15818;SDS011;8010;53.986;12.106;2024-03-08T05:07:00;19.63;;;8.10;;
15818;SDS011;8010;53.986;12.106;2024-03-08T05:09:26;17.83;;;7.27;;
15818;SDS011;8010;53.986;12.106;2024-03-08T05:11:54;12.70;;;7.23;;
15818;SDS011;8010;53.986;12.106;2024-03-08T05:14:19;14.73;;;7.83;;
15818;SDS011;8010;53.986;12.106;2024-03-08T05:16:45;20.43;;;8.17;;
15818;SDS011;8010;53.986;12.106;2024-03-08T05:19:14;15.40;;;8.03;;
15818;SDS011;8010;53.986;12.106;2024-03-08T05:21:42;16.43;;;7.73;;
15818;SDS011;8010;53.986;12.106;2024-03-08T05:24:09;22.93;;;8.47;;
15818;SDS011;8010;53.986;12.106;2024-03-08T05:26:35;15.33;;;8.33;;
15818;SDS011;8010;53.986;12.106;2024-03-08T05:29:02;17.07;;;8.40;;
15818;SDS011;8010;53.986;12.106;2024-03-08T05:31:28;17.27;;;8.57;;
15818;SDS011;8010;53.986;12.106;2024-03-08T05:33:56;27.77;;;8.07;;
15818;SDS011;8010;53.986;12.106;2024-03-08T05:36:21;19.77;;;8.13;;
15818;SDS011;8010;53.986;12.106;2024-03-08T05:38:47;15.07;;;7.20;;
15818;SDS011;8010;53.986;12.106;2024-03-08T05:41:15;18.63;;;8.13;;
15818;SDS011;8010;53.986;12.106;2024-03-08T05:43:41;20.83;;;8.00;;
15818;SDS011;8010;53.986;12.106;2024-03-08T05:46:07;16.33;;;7.70;;
15818;SDS011;8010;53.986;12.106;2024-03-08T05:48:32;18.17;;;7.67;;
15818;SDS011;8010;53.986;12.106;2024-03-08T05:50:58;13.97;;;7.57;;
15818;SDS011;8010;53.986;12.106;2024-03-08T05:53:25;16.67;;;7.83;;
15818;SDS011;8010;53.986;12.106;2024-03-08T05:55:51;16.53;;;8.10;;
15818;SDS011;8010;53.986;12.106;2024-03-08T05:58:17;15.70;;;8.17;;
15818;SDS011;8010;53.986;12.106;2024-03-08T06:00:42;43.33;;;8.77;;
15818;SDS011;8010;53.986;12.106;2024-03-08T06:03:08;15.67;;;8.13;;
15818;SDS011;8010;53.986;12.106;2024-03-08T06:05:34;17.20;;;7.90;;
15818;SDS011;8010;53.986;12.106;2024-03-08T06:07:59;15.97;;;7.63;;
15818;SDS011;8010;53.986;12.106;2024-03-08T06:10:25;14.47;;;7.47;;
15818;SDS011;8010;53.986;12.106;2024-03-08T06:12:50;16.27;;;7.17;;
15818;SDS011;8010;53.986;12.106;2024-03-08T06:15:16;15.63;;;8.10;;
15818;SDS011;8010;53.986;12.106;2024-03-08T06:17:42;17.40;;;8.07;;
15818;SDS011;8010;53.986;12.106;2024-03-08T06:20:08;20.10;;;8.00;;
15818;SDS011;8010;53.986;12.106;2024-03-08T06:22:38;16.87;;;8.53;;
15818;SDS011;8010;53.986;12.106;2024-03-08T06:25:07;15.67;;;8.47;;
15818;SDS011;8010;53.986;12.106;2024-03-08T06:27:33;20.90;;;8.90;;
15818;SDS011;8010;53.986;12.106;2024-03-08T06:29:59;15.73;;;8.43;;
15818;SDS011;8010;53.986;12.106;2024-03-08T06:32:25;20.10;;;8.77;;
15818;SDS011;8010;53.986;12.106;2024-03-08T06:34:51;16.97;;;7.87;;
15818;SDS011;8010;53.986;12.106;2024-03-08T06:37:16;18.53;;;8.27;;
15818;SDS011;8010;53.986;12.106;2024-03-08T06:39:47;18.50;;;8.13;;
15818;SDS011;8010;53.986;12.106;2024-03-08T06:42:13;24.80;;;8.90;;
15818;SDS011;8010;53.986;12.106;2024-03-08T06:44:39;21.10;;;9.30;;
15818;SDS011;8010;53.986;12.106;2024-03-08T06:47:13;15.23;;;8.13;;
15818;SDS011;8010;53.986;12.106;2024-03-08T06:49:40;15.33;;;7.37;;
15818;SDS011;8010;53.986;12.106;2024-03-08T06:52:06;19.73;;;8.73;;
15818;SDS011;8010;53.986;12.106;2024-03-08T06:54:33;19.07;;;8.63;;
15818;SDS011;8010;53.986;12.106;2024-03-08T06:57:01;15.87;;;7.27;;
15818;SDS011;8010;53.986;12.106;2024-03-08T06:59:28;17.63;;;7.67;;
15818;SDS011;8010;53.986;12.106;2024-03-08T07:01:54;17.70;;;9.03;;
15818;SDS011;8010;53.986;12.106;2024-03-08T07:04:19;16.13;;;8.23;;
15818;SDS011;8010;53.986;12.106;2024-03-08T07:06:46;15.83;;;8.60;;
15818;SDS011;8010;53.986;12.106;2024-03-08T07:09:14;20.83;;;8.77;;
15818;SDS011;8010;53.986;12.106;2024-03-08T07:11:41;16.43;;;8.47;;
15818;SDS011;8010;53.986;12.106;2024-03-08T07:14:07;18.37;;;8.97;;
15818;SDS011;8010;53.986;12.106;2024-03-08T07:16:33;19.77;;;9.23;;
15818;SDS011;8010;53.986;12.106;2024-03-08T07:19:00;17.30;;;9.03;;
15818;SDS011;8010;53.986;12.106;2024-03-08T07:21:26;17.27;;;8.43;;
15818;SDS011;8010;53.986;12.106;2024-03-08T07:23:52;20.47;;;9.30;;
15818;SDS011;8010;53.986;12.106;2024-03-08T07:26:26;20.33;;;8.80;;
15818;SDS011;8010;53.986;12.106;2024-03-08T07:28:52;17.97;;;9.03;;
15818;SDS011;8010;53.986;12.106;2024-03-08T07:31:20;20.90;;;9.90;;
15818;SDS011;8010;53.986;12.106;2024-03-08T07:33:59;18.03;;;9.33;;
15818;SDS011;8010;53.986;12.106;2024-03-08T07:36:25;21.47;;;10.17;;
15818;SDS011;8010;53.986;12.106;2024-03-08T07:38:51;15.87;;;8.93;;
15818;SDS011;8010;53.986;12.106;2024-03-08T07:41:16;19.83;;;8.17;;
15818;SDS011;8010;53.986;12.106;2024-03-08T07:43:42;17.17;;;9.70;;
15818;SDS011;8010;53.986;12.106;2024-03-08T07:46:07;21.97;;;10.33;;
15818;SDS011;8010;53.986;12.106;2024-03-08T07:48:35;18.93;;;10.47;;
15818;SDS011;8010;53.986;12.106;2024-03-08T07:51:01;18.93;;;9.53;;
15818;SDS011;8010;53.986;12.106;2024-03-08T07:53:28;19.70;;;9.90;;
15818;SDS011;8010;53.986;12.106;2024-03-08T07:55:53;19.27;;;10.87;;
15818;SDS011;8010;53.986;12.106;2024-03-08T07:58:19;21.40;;;11.03;;
15818;SDS011;8010;53.986;12.106;2024-03-08T08:00:45;23.60;;;11.40;;
15818;SDS011;8010;53.986;12.106;2024-03-08T08:03:11;25.17;;;12.83;;
15818;SDS011;8010;53.986;12.106;2024-03-08T08:05:37;26.37;;;11.17;;
15818;SDS011;8010;53.986;12.106;2024-03-08T08:08:04;27.03;;;11.13;;
15818;SDS011;8010;53.986;12.106;2024-03-08T08:10:31;21.97;;;11.60;;
15818;SDS011;8010;53.986;12.106;2024-03-08T08:12:57;21.80;;;11.53;;
15818;SDS011;8010;53.986;12.106;2024-03-08T08:15:23;22.77;;;11.53;;
15818;SDS011;8010;53.986;12.106;2024-03-08T08:17:49;23.10;;;11.00;;
15818;SDS011;8010;53.986;12.106;2024-03-08T08:20:15;26.83;;;10.97;;
15818;SDS011;8010;53.986;12.106;2024-03-08T08:22:43;21.27;;;10.50;;
15818;SDS011;8010;53.986;12.106;2024-03-08T08:25:09;20.07;;;9.87;;
15818;SDS011;8010;53.986;12.106;2024-03-08T08:27:38;21.60;;;10.80;;
15818;SDS011;8010;53.986;12.106;2024-03-08T08:30:05;21.50;;;10.87;;
15818;SDS011;8010;53.986;12.106;2024-03-08T08:32:33;25.23;;;10.67;;
15818;SDS011;8010;53.986;12.106;2024-03-08T08:35:02;23.07;;;10.77;;
15818;SDS011;8010;53.986;12.106;2024-03-08T08:37:29;20.57;;;10.93;;
15818;SDS011;8010;53.986;12.106;2024-03-08T08:39:56;22.57;;;10.77;;
15818;SDS011;8010;53.986;12.106;2024-03-08T08:42:22;25.13;;;11.63;;
15818;SDS011;8010;53.986;12.106;2024-03-08T08:44:48;20.53;;;10.43;;
15818;SDS011;8010;53.986;12.106;2024-03-08T08:47:15;24.60;;;10.40;;
15818;SDS011;8010;53.986;12.106;2024-03-08T08:49:43;22.17;;;11.23;;
15818;SDS011;8010;53.986;12.106;2024-03-08T08:52:11;21.77;;;11.30;;
15818;SDS011;8010;53.986;12.106;2024-03-08T08:54:36;20.97;;;11.37;;
15818;SDS011;8010;53.986;12.106;2024-03-08T08:57:02;21.50;;;11.40;;
15818;SDS011;8010;53.986;12.106;2024-03-08T08:59:32;24.40;;;11.87;;
15818;SDS011;8010;53.986;12.106;2024-03-08T09:02:04;24.17;;;11.30;;
15818;SDS011;8010;53.986;12.106;2024-03-08T09:04:30;23.20;;;12.10;;
15818;SDS011;8010;53.986;12.106;2024-03-08T09:06:58;23.20;;;11.70;;
15818;SDS011;8010;53.986;12.106;2024-03-08T09:09:24;24.33;;;12.50;;
15818;SDS011;8010;53.986;12.106;2024-03-08T09:11:50;20.67;;;10.80;;
15818;SDS011;8010;53.986;12.106;2024-03-08T09:14:16;26.23;;;11.73;;
15818;SDS011;8010;53.986;12.106;2024-03-08T09:16:41;25.07;;;11.33;;
15818;SDS011;8010;53.986;12.106;2024-03-08T09:19:07;25.77;;;11.43;;
15818;SDS011;8010;53.986;12.106;2024-03-08T09:21:35;24.33;;;11.50;;
15818;SDS011;8010;53.986;12.106;2024-03-08T09:24:01;25.10;;;11.83;;
15818;SDS011;8010;53.986;12.106;2024-03-08T09:26:27;24.53;;;12.67;;
15818;SDS011;8010;53.986;12.106;2024-03-08T09:28:52;23.17;;;12.63;;
15818;SDS011;8010;53.986;12.106;2024-03-08T09:31:20;23.73;;;12.70;;
15818;SDS011;8010;53.986;12.106;2024-03-08T09:33:46;22.83;;;11.87;;
15818;SDS011;8010;53.986;12.106;2024-03-08T09:36:11;23.73;;;12.80;;
15818;SDS011;8010;53.986;12.106;2024-03-08T09:38:39;24.40;;;12.53;;
15818;SDS011;8010;53.986;12.106;2024-03-08T09:41:04;22.77;;;12.20;;
15818;SDS011;8010;53.986;12.106;2024-03-08T09:43:30;29.07;;;13.33;;
15818;SDS011;8010;53.986;12.106;2024-03-08T09:45:56;25.13;;;12.47;;
15818;SDS011;8010;53.986;12.106;2024-03-08T09:48:23;25.17;;;12.83;;
15818;SDS011;8010;53.986;12.106;2024-03-08T09:50:49;25.97;;;13.10;;
15818;SDS011;8010;53.986;12.106;2024-03-08T09:53:15;26.20;;;14.27;;
15818;SDS011;8010;53.986;12.106;2024-03-08T09:55:41;28.13;;;13.73;;
15818;SDS011;8010;53.986;12.106;2024-03-08T09:58:09;30.17;;;13.97;;
15818;SDS011;8010;53.986;12.106;2024-03-08T10:00:55;28.87;;;14.27;;
15818;SDS011;8010;53.986;12.106;2024-03-08T10:03:24;27.10;;;14.40;;
15818;SDS011;8010;53.986;12.106;2024-03-08T10:05:52;29.13;;;14.27;;
15818;SDS011;8010;53.986;12.106;2024-03-08T10:08:25;26.53;;;14.33;;
15818;SDS011;8010;53.986;12.106;2024-03-08T10:10:52;28.33;;;14.17;;
15818;SDS011;8010;53.986;12.106;2024-03-08T10:13:17;25.40;;;13.33;;
15818;SDS011;8010;53.986;12.106;2024-03-08T10:15:44;26.50;;;14.03;;
15818;SDS011;8010;53.986;12.106;2024-03-08T10:18:10;25.73;;;14.00;;
15818;SDS011;8010;53.986;12.106;2024-03-08T10:20:35;25.37;;;13.30;;
15818;SDS011;8010;53.986;12.106;2024-03-08T10:23:02;28.47;;;13.70;;
15818;SDS011;8010;53.986;12.106;2024-03-08T10:25:29;29.57;;;14.83;;
15818;SDS011;8010;53.986;12.106;2024-03-08T10:27:58;28.13;;;14.47;;
15818;SDS011;8010;53.986;12.106;2024-03-08T10:30:24;26.23;;;14.70;;
15818;SDS011;8010;53.986;12.106;2024-03-08T10:32:50;26.73;;;14.73;;
15818;SDS011;8010;53.986;12.106;2024-03-08T10:35:16;26.20;;;13.50;;
15818;SDS011;8010;53.986;12.106;2024-03-08T10:37:49;24.90;;;14.23;;
15818;SDS011;8010;53.986;12.106;2024-03-08T10:40:22;23.50;;;13.40;;
15818;SDS011;8010;53.986;12.106;2024-03-08T10:50:33;23.93;;;13.73;;
15818;SDS011;8010;53.986;12.106;2024-03-08T10:53:00;25.03;;;14.60;;
15818;SDS011;8010;53.986;12.106;2024-03-08T10:55:28;24.20;;;14.53;;
15818;SDS011;8010;53.986;12.106;2024-03-08T10:57:55;23.10;;;13.83;;
15818;SDS011;8010;53.986;12.106;2024-03-08T11:00:21;25.00;;;15.07;;
15818;SDS011;8010;53.986;12.106;2024-03-08T11:02:57;24.27;;;13.57;;
15818;SDS011;8010;53.986;12.106;2024-03-08T11:05:38;27.40;;;14.33;;
15818;SDS011;8010;53.986;12.106;2024-03-08T11:08:14;21.43;;;13.03;;
15818;SDS011;8010;53.986;12.106;2024-03-08T11:10:51;23.50;;;13.00;;
15818;SDS011;8010;53.986;12.106;2024-03-08T11:13:34;22.50;;;13.00;;
15818;SDS011;8010;53.986;12.106;2024-03-08T11:16:11;22.30;;;12.23;;
15818;SDS011;8010;53.986;12.106;2024-03-08T11:21:30;21.10;;;12.70;;
15818;SDS011;8010;53.986;12.106;2024-03-08T11:23:59;23.10;;;13.33;;
15818;SDS011;8010;53.986;12.106;2024-03-08T11:26:25;23.93;;;14.83;;
15818;SDS011;8010;53.986;12.106;2024-03-08T11:28:51;21.27;;;12.90;;
15818;SDS011;8010;53.986;12.106;2024-03-08T11:33:48;21.07;;;12.00;;
15818;SDS011;8010;53.986;12.106;2024-03-08T11:36:23;21.73;;;13.43;;
15818;SDS011;8010;53.986;12.106;2024-03-08T11:38:50;21.00;;;13.33;;
15818;SDS011;8010;53.986;12.106;2024-03-08T11:41:21;20.60;;;12.43;;
15818;SDS011;8010;53.986;12.106;2024-03-08T11:43:48;20.43;;;12.60;;
15818;SDS011;8010;53.986;12.106;2024-03-08T11:46:15;20.90;;;12.57;;
15818;SDS011;8010;53.986;12.106;2024-03-08T11:48:41;20.27;;;12.83;;
15818;SDS011;8010;53.986;12.106;2024-03-08T11:51:12;20.63;;;12.50;;
15818;SDS011;8010;53.986;12.106;2024-03-08T11:53:40;19.17;;;11.97;;
15818;SDS011;8010;53.986;12.106;2024-03-08T11:56:09;21.23;;;13.00;;
15818;SDS011;8010;53.986;12.106;2024-03-08T11:58:39;20.13;;;11.73;;
15818;SDS011;8010;53.986;12.106;2024-03-08T12:01:06;16.63;;;11.00;;
15818;SDS011;8010;53.986;12.106;2024-03-08T12:03:34;18.60;;;10.43;;
15818;SDS011;8010;53.986;12.106;2024-03-08T12:06:00;17.03;;;10.60;;
15818;SDS011;8010;53.986;12.106;2024-03-08T12:08:27;16.20;;;10.97;;
15818;SDS011;8010;53.986;12.106;2024-03-08T12:10:56;16.20;;;10.60;;
15818;SDS011;8010;53.986;12.106;2024-03-08T12:13:28;20.60;;;11.80;;
15818;SDS011;8010;53.986;12.106;2024-03-08T12:15:59;18.67;;;11.00;;
15818;SDS011;8010;53.986;12.106;2024-03-08T12:18:38;18.70;;;12.00;;
15818;SDS011;8010;53.986;12.106;2024-03-08T12:21:04;15.50;;;10.10;;
15818;SDS011;8010;53.986;12.106;2024-03-08T12:23:37;16.57;;;10.73;;
15818;SDS011;8010;53.986;12.106;2024-03-08T12:28:43;19.20;;;11.83;;
15818;SDS011;8010;53.986;12.106;2024-03-08T12:31:13;15.80;;;10.80;;
15818;SDS011;8010;53.986;12.106;2024-03-08T12:33:52;17.23;;;11.10;;
15818;SDS011;8010;53.986;12.106;2024-03-08T12:36:18;16.77;;;10.53;;
15818;SDS011;8010;53.986;12.106;2024-03-08T12:38:48;17.10;;;11.00;;
15818;SDS011;8010;53.986;12.106;2024-03-08T12:41:14;17.93;;;10.77;;
15818;SDS011;8010;53.986;12.106;2024-03-08T12:43:42;16.23;;;10.43;;
15818;SDS011;8010;53.986;12.106;2024-03-08T12:46:11;15.20;;;9.17;;
15818;SDS011;8010;53.986;12.106;2024-03-08T12:48:37;16.93;;;9.53;;
15818;SDS011;8010;53.986;12.106;2024-03-08T12:51:05;14.33;;;9.20;;
15818;SDS011;8010;53.986;12.106;2024-03-08T12:53:33;15.13;;;9.57;;
15818;SDS011;8010;53.986;12.106;2024-03-08T12:55:59;17.07;;;10.67;;
15818;SDS011;8010;53.986;12.106;2024-03-08T12:58:25;13.53;;;9.33;;
15818;SDS011;8010;53.986;12.106;2024-03-08T13:00:51;16.27;;;10.80;;
15818;SDS011;8010;53.986;12.106;2024-03-08T13:03:17;17.20;;;11.57;;
15818;SDS011;8010;53.986;12.106;2024-03-08T13:05:42;15.60;;;9.70;;
15818;SDS011;8010;53.986;12.106;2024-03-08T13:08:08;16.50;;;10.17;;
15818;SDS011;8010;53.986;12.106;2024-03-08T13:10:41;15.53;;;9.57;;
15818;SDS011;8010;53.986;12.106;2024-03-08T13:13:08;16.93;;;10.30;;
15818;SDS011;8010;53.986;12.106;2024-03-08T13:15:40;15.63;;;10.03;;
15818;SDS011;8010;53.986;12.106;2024-03-08T13:18:05;18.33;;;10.70;;
15818;SDS011;8010;53.986;12.106;2024-03-08T13:20:33;18.03;;;10.47;;
15818;SDS011;8010;53.986;12.106;2024-03-08T13:23:02;16.40;;;10.07;;
15818;SDS011;8010;53.986;12.106;2024-03-08T13:25:29;20.73;;;13.37;;
15818;SDS011;8010;53.986;12.106;2024-03-08T13:27:54;19.43;;;11.67;;
15818;SDS011;8010;53.986;12.106;2024-03-08T13:30:22;18.43;;;11.47;;
15818;SDS011;8010;53.986;12.106;2024-03-08T13:32:51;14.27;;;9.80;;
15818;SDS011;8010;53.986;12.106;2024-03-08T13:35:17;17.23;;;10.03;;
15818;SDS011;8010;53.986;12.106;2024-03-08T13:37:49;18.53;;;11.60;;
15818;SDS011;8010;53.986;12.106;2024-03-08T13:40:16;16.17;;;10.43;;
15818;SDS011;8010;53.986;12.106;2024-03-08T13:42:44;18.30;;;11.27;;
15818;SDS011;8010;53.986;12.106;2024-03-08T13:45:14;17.63;;;10.80;;
15818;SDS011;8010;53.986;12.106;2024-03-08T13:47:42;15.73;;;10.37;;
15818;SDS011;8010;53.986;12.106;2024-03-08T13:50:09;16.30;;;10.37;;
15818;SDS011;8010;53.986;12.106;2024-03-08T13:52:39;16.63;;;10.27;;
15818;SDS011;8010;53.986;12.106;2024-03-08T13:55:05;15.60;;;10.73;;
15818;SDS011;8010;53.986;12.106;2024-03-08T13:57:34;17.63;;;10.23;;
15818;SDS011;8010;53.986;12.106;2024-03-08T14:00:00;17.57;;;10.77;;
15818;SDS011;8010;53.986;12.106;2024-03-08T14:02:26;18.43;;;11.43;;
15818;SDS011;8010;53.986;12.106;2024-03-08T14:04:56;18.80;;;10.83;;
15818;SDS011;8010;53.986;12.106;2024-03-08T14:07:22;19.30;;;12.07;;
15818;SDS011;8010;53.986;12.106;2024-03-08T14:09:50;18.00;;;10.03;;
15818;SDS011;8010;53.986;12.106;2024-03-08T14:12:17;16.90;;;10.07;;
15818;SDS011;8010;53.986;12.106;2024-03-08T14:14:43;16.80;;;10.30;;
15818;SDS011;8010;53.986;12.106;2024-03-08T14:17:09;16.77;;;10.47;;
15818;SDS011;8010;53.986;12.106;2024-03-08T14:19:36;16.70;;;11.00;;
15818;SDS011;8010;53.986;12.106;2024-03-08T14:22:02;17.27;;;10.13;;
15818;SDS011;8010;53.986;12.106;2024-03-08T14:24:29;14.10;;;9.17;;
15818;SDS011;8010;53.986;12.106;2024-03-08T14:26:55;15.60;;;9.80;;
15818;SDS011;8010;53.986;12.106;2024-03-08T14:29:23;15.30;;;9.63;;
15818;SDS011;8010;53.986;12.106;2024-03-08T14:31:54;14.93;;;8.33;;
15818;SDS011;8010;53.986;12.106;2024-03-08T14:34:23;12.87;;;8.67;;
15818;SDS011;8010;53.986;12.106;2024-03-08T14:36:52;14.63;;;9.03;;
15818;SDS011;8010;53.986;12.106;2024-03-08T14:39:18;16.70;;;9.53;;
15818;SDS011;8010;53.986;12.106;2024-03-08T14:41:46;14.30;;;9.03;;
15818;SDS011;8010;53.986;12.106;2024-03-08T14:44:12;12.53;;;8.20;;
15818;SDS011;8010;53.986;12.106;2024-03-08T14:46:38;15.27;;;9.83;;